createdAt,value
2019-06-10T00:02:17.654Z,18.30
2019-06-10T00:04:47.993Z,18.20
2019-06-10T00:07:18.375Z,18.20
2019-06-10T00:09:51.072Z,18.10
2019-06-10T00:12:21.048Z,18.10
2019-06-10T00:14:51.392Z,18.10
2019-06-10T00:17:21.722Z,18.10
2019-06-10T00:19:52.074Z,18.00
2019-06-10T00:22:22.670Z,18.00
2019-06-10T00:24:52.961Z,18.00
2019-06-10T00:27:24.476Z,17.90
2019-06-10T00:29:54.777Z,17.90
2019-06-10T00:32:26.239Z,17.90
2019-06-10T00:34:56.505Z,17.90
2019-06-10T00:37:26.828Z,17.90
2019-06-10T00:39:59.902Z,17.80
2019-06-10T00:42:31.437Z,17.80
2019-06-10T00:45:05.320Z,17.80
2019-06-10T00:47:33.909Z,17.80
2019-06-10T00:50:08.140Z,17.80
2019-06-10T00:52:36.317Z,17.70
2019-06-10T00:55:07.730Z,17.70
2019-06-10T00:57:38.702Z,17.70
2019-06-10T01:00:19.250Z,17.70
2019-06-10T01:02:42.032Z,17.60
2019-06-10T01:05:14.940Z,17.60
2019-06-10T01:07:44.409Z,17.60
2019-06-10T01:10:15.589Z,17.50
2019-06-10T01:12:45.891Z,17.50
2019-06-10T01:15:16.389Z,17.50
2019-06-10T01:17:46.733Z,17.40
2019-06-10T01:20:17.081Z,17.40
2019-06-10T01:22:47.665Z,17.40
2019-06-10T01:25:18.066Z,17.40
2019-06-10T01:27:48.439Z,17.30
2019-06-10T01:30:24.521Z,17.30
2019-06-10T01:32:50.982Z,17.30
2019-06-10T01:35:21.359Z,17.30
2019-06-10T01:37:52.002Z,17.30
2019-06-10T01:40:22.388Z,17.20
2019-06-10T01:42:52.814Z,17.20
2019-06-10T01:45:23.114Z,17.20
2019-06-10T01:47:53.539Z,17.20
2019-06-10T01:50:23.862Z,17.20
2019-06-10T01:52:54.156Z,17.20
2019-06-10T01:55:24.606Z,17.20
2019-06-10T01:57:54.942Z,17.20
2019-06-10T02:00:31.517Z,17.20
2019-06-10T02:03:03.659Z,17.20
2019-06-10T02:05:33.817Z,17.10
2019-06-10T02:08:04.127Z,17.10
2019-06-10T02:10:34.419Z,17.10
2019-06-10T02:13:04.814Z,17.10
2019-06-10T02:15:35.114Z,17.10
2019-06-10T02:18:05.443Z,17.10
2019-06-10T02:20:35.848Z,17.10
2019-06-10T02:23:06.316Z,17.10
2019-06-10T02:25:37.623Z,17.10
2019-06-10T02:28:11.852Z,17.10
2019-06-10T02:30:50.121Z,17.10
2019-06-10T02:33:17.280Z,17.10
2019-06-10T02:35:49.006Z,17.10
2019-06-10T02:38:22.545Z,17.10
2019-06-10T02:40:49.204Z,17.10
2019-06-10T02:43:29.409Z,17.10
2019-06-10T02:45:54.010Z,17.10
2019-06-10T02:48:30.135Z,17.10
2019-06-10T02:51:04.265Z,17.10
2019-06-10T02:53:36.641Z,17.10
2019-06-10T02:56:09.398Z,17.10
2019-06-10T02:58:41.540Z,17.10
2019-06-10T03:01:16.342Z,17.10
2019-06-10T03:03:49.510Z,17.10
2019-06-10T03:06:20.181Z,17.10
2019-06-10T03:08:49.936Z,17.00
2019-06-10T03:11:22.267Z,17.00
2019-06-10T03:13:53.103Z,17.00
2019-06-10T03:16:34.617Z,16.90
2019-06-10T03:19:04.973Z,16.90
2019-06-10T03:21:35.301Z,16.90
2019-06-10T03:24:05.601Z,16.90
2019-06-10T03:26:35.897Z,16.80
2019-06-10T03:29:05.865Z,16.80
2019-06-10T03:31:41.856Z,16.80
2019-06-10T03:34:08.231Z,16.80
2019-06-10T03:36:40.069Z,16.80
2019-06-10T03:39:13.116Z,16.70
2019-06-10T03:41:42.558Z,16.70
2019-06-10T03:44:13.308Z,16.70
2019-06-10T03:46:43.697Z,16.70
2019-06-10T03:49:14.028Z,16.70
2019-06-10T03:51:44.432Z,16.70
2019-06-10T03:54:14.801Z,16.70
2019-06-10T03:56:45.109Z,16.70
2019-06-10T03:59:15.400Z,16.70
2019-06-10T04:01:45.702Z,16.70
2019-06-10T04:04:17.320Z,16.70
2019-06-10T04:06:47.970Z,16.70
2019-06-10T04:09:19.453Z,16.70
2019-06-10T04:11:49.855Z,16.70
2019-06-10T04:14:22.149Z,16.70
2019-06-10T04:16:52.513Z,16.70
2019-06-10T04:19:25.369Z,16.70
2019-06-10T04:21:55.010Z,16.70
2019-06-10T04:24:26.629Z,16.80
2019-06-10T04:26:57.389Z,16.80
2019-06-10T04:29:29.033Z,16.80
2019-06-10T04:31:59.445Z,16.90
2019-06-10T04:34:33.251Z,16.90
2019-06-10T04:37:03.153Z,16.90
2019-06-10T04:39:33.805Z,16.90
2019-06-10T04:42:04.152Z,17.00
2019-06-10T04:44:35.049Z,17.00
2019-06-10T04:47:05.906Z,17.00
2019-06-10T04:49:36.281Z,17.00
2019-06-10T04:52:06.173Z,17.00
2019-06-10T04:54:36.550Z,17.00
2019-06-10T04:57:06.503Z,17.10
2019-06-10T04:59:36.896Z,17.10
2019-06-10T05:02:07.316Z,17.10
2019-06-10T05:04:37.813Z,17.10
2019-06-10T05:07:08.220Z,17.10
2019-06-10T05:09:38.650Z,17.20
2019-06-10T05:12:12.026Z,17.20
2019-06-10T05:14:43.297Z,17.20
2019-06-10T05:17:13.398Z,17.20
2019-06-10T05:19:43.722Z,17.20
2019-06-10T05:22:14.118Z,17.30
2019-06-10T05:24:44.445Z,17.30
2019-06-10T05:27:14.822Z,17.40
2019-06-10T05:29:45.211Z,17.40
2019-06-10T05:32:15.510Z,17.50
2019-06-10T05:34:45.846Z,17.50
2019-06-10T05:37:16.279Z,17.50
2019-06-10T05:39:46.613Z,17.50
2019-06-10T05:42:16.936Z,17.50
2019-06-10T05:44:47.257Z,17.50
2019-06-10T05:47:17.725Z,17.50
2019-06-10T05:49:48.069Z,17.50
2019-06-10T05:52:18.393Z,17.60
2019-06-10T05:54:48.713Z,17.50
2019-06-10T05:57:19.013Z,17.60
2019-06-10T05:59:51.888Z,17.60
2019-06-10T06:02:23.891Z,17.70
2019-06-10T06:04:54.458Z,17.70
2019-06-10T06:07:25.213Z,17.80
2019-06-10T06:09:55.501Z,17.80
2019-06-10T06:12:27.397Z,17.90
2019-06-10T06:14:57.757Z,17.90
2019-06-10T06:17:28.153Z,18.00
2019-06-10T06:19:58.436Z,18.00
2019-06-10T06:22:29.500Z,18.10
2019-06-10T06:24:59.850Z,18.20
2019-06-10T06:27:31.381Z,18.20
2019-06-10T06:30:06.973Z,18.30
2019-06-10T06:32:36.376Z,18.50
2019-06-10T06:35:06.176Z,18.60
2019-06-10T06:37:39.448Z,18.70
2019-06-10T06:40:08.995Z,18.70
2019-06-10T06:42:43.298Z,18.80
2019-06-10T06:45:13.337Z,18.80
2019-06-10T06:47:43.932Z,18.90
2019-06-10T06:50:14.770Z,19.00
2019-06-10T06:53:15.346Z,19.10
2019-06-10T06:55:17.505Z,19.10
2019-06-10T06:57:47.810Z,19.20
2019-06-10T07:00:38.201Z,19.40
2019-06-10T07:02:52.817Z,19.50
2019-06-10T07:05:22.956Z,19.50
2019-06-10T07:07:53.602Z,19.60
2019-06-10T07:10:24.216Z,19.60
2019-06-10T07:12:56.117Z,19.50
2019-06-10T07:15:39.683Z,19.50
2019-06-10T07:18:12.845Z,19.60
2019-06-10T07:20:45.569Z,19.60
2019-06-10T07:23:15.414Z,19.70
2019-06-10T07:25:47.450Z,19.80
2019-06-10T07:28:17.713Z,19.80
2019-06-10T07:30:52.860Z,19.80
2019-06-10T07:33:22.542Z,19.90
2019-06-10T07:35:52.847Z,20.00
2019-06-10T07:38:26.219Z,20.10
2019-06-10T07:40:56.254Z,20.20
2019-06-10T07:43:27.663Z,20.30
2019-06-10T07:45:58.010Z,20.40
2019-06-10T07:48:28.307Z,20.50
2019-06-10T07:50:58.630Z,20.60
2019-06-10T07:53:28.958Z,20.70
2019-06-10T07:55:59.401Z,20.60
2019-06-10T07:58:29.741Z,20.60
2019-06-10T08:01:02.599Z,20.60
2019-06-10T08:03:34.955Z,20.60
2019-06-10T08:06:05.261Z,20.60
2019-06-10T08:08:36.635Z,20.60
2019-06-10T08:11:07.261Z,20.70
2019-06-10T08:13:37.648Z,20.80
2019-06-10T08:16:07.977Z,20.90
2019-06-10T08:18:51.098Z,20.90
2019-06-10T08:21:12.256Z,21.00
2019-06-10T08:23:46.881Z,21.10
2019-06-10T08:26:15.953Z,21.10
2019-06-10T08:28:47.945Z,21.10
2019-06-10T08:31:18.686Z,21.10
2019-06-10T08:33:53.449Z,21.20
2019-06-10T08:36:23.166Z,21.20
2019-06-10T08:38:53.523Z,21.20
2019-06-10T08:41:23.855Z,21.20
2019-06-10T08:46:37.173Z,21.30
2019-06-10T08:49:07.587Z,21.50
2019-06-10T08:51:39.564Z,21.60
2019-06-10T08:54:12.639Z,21.70
2019-06-10T08:56:45.576Z,21.80
2019-06-10T08:59:14.073Z,21.90
2019-06-10T09:01:48.348Z,22.00
2019-06-10T09:04:16.521Z,22.00
2019-06-10T09:06:49.563Z,22.10
2019-06-10T09:09:18.818Z,22.20
2019-06-10T09:11:53.890Z,22.30
2019-06-10T09:16:41.908Z,22.40
2019-06-10T09:19:09.634Z,22.60
2019-06-10T09:21:45.940Z,22.70
2019-06-10T09:24:13.146Z,22.90
2019-06-10T09:26:45.028Z,22.90
2019-06-10T09:29:15.593Z,22.90
2019-06-10T09:31:49.612Z,22.90
2019-06-10T09:34:17.873Z,22.90
2019-06-10T09:36:53.059Z,23.00
2019-06-10T09:39:20.159Z,23.10
2019-06-10T09:42:00.042Z,23.20
2019-06-10T09:44:22.906Z,23.30
2019-06-10T09:46:56.421Z,23.50
2019-06-10T09:49:27.213Z,23.60
2019-06-10T09:51:58.734Z,23.70
2019-06-10T09:54:29.132Z,23.70
2019-06-10T09:57:02.255Z,23.80
2019-06-10T09:59:32.246Z,23.90
2019-06-10T10:02:06.178Z,24.00
2019-06-10T10:04:37.514Z,24.10
2019-06-10T10:07:07.888Z,24.20
2019-06-10T10:09:42.097Z,24.20
2019-06-10T10:12:13.308Z,24.30
2019-06-10T10:14:46.036Z,24.30
2019-06-10T10:17:15.625Z,24.40
2019-06-10T10:19:48.673Z,24.30
2019-06-10T10:22:17.930Z,24.40
2019-06-10T10:24:49.315Z,24.60
2019-06-10T10:27:19.693Z,24.70
2019-06-10T10:29:52.336Z,24.70
2019-06-10T10:32:23.453Z,24.80
2019-06-10T10:34:56.430Z,24.80
2019-06-10T10:37:27.450Z,25.00
2019-06-10T10:39:59.416Z,25.00
2019-06-10T10:42:42.633Z,25.00
2019-06-10T10:45:04.360Z,25.10
2019-06-10T10:47:34.677Z,25.30
2019-06-10T10:50:28.977Z,25.40
2019-06-10T10:53:00.463Z,25.40
2019-06-10T10:55:32.740Z,25.50
2019-06-10T10:58:03.233Z,25.60
2019-06-10T11:00:49.274Z,25.70
2019-06-10T11:03:17.405Z,25.70
2019-06-10T11:05:49.905Z,25.70
2019-06-10T11:08:19.518Z,25.70
2019-06-10T11:10:57.380Z,25.90
2019-06-10T11:13:26.049Z,26.00
2019-06-10T11:15:57.107Z,26.20
2019-06-10T11:18:28.310Z,26.30
2019-06-10T11:21:01.715Z,26.30
2019-06-10T11:23:33.657Z,26.40
2019-06-10T11:26:02.771Z,26.50
2019-06-10T11:28:33.138Z,26.60
2019-06-10T11:31:04.716Z,26.70
2019-06-10T11:33:35.266Z,26.70
2019-06-10T11:36:05.579Z,26.70
2019-06-10T11:38:36.105Z,26.70
2019-06-10T11:41:06.379Z,26.60
2019-06-10T11:43:36.769Z,26.60
2019-06-10T11:46:08.079Z,26.70
2019-06-10T11:48:39.022Z,26.80
2019-06-10T11:51:09.326Z,26.70
2019-06-10T11:53:40.012Z,26.80
2019-06-10T11:56:12.830Z,26.80
2019-06-10T11:58:43.619Z,26.90
2019-06-10T12:01:14.054Z,27.10
2019-06-10T12:03:44.417Z,27.30
2019-06-10T12:06:14.755Z,27.60
2019-06-10T12:08:45.149Z,27.60
2019-06-10T12:11:15.517Z,27.80
2019-06-10T12:13:45.859Z,27.80
2019-06-10T12:18:49.045Z,27.80
2019-06-10T12:21:19.466Z,27.90
2019-06-10T12:23:49.810Z,28.00
2019-06-10T12:26:23.258Z,28.10
2019-06-10T12:28:56.298Z,28.30
2019-06-10T12:31:25.691Z,28.40
2019-06-10T12:33:57.631Z,28.50
2019-06-10T12:36:28.061Z,28.50
2019-06-10T12:39:06.401Z,28.60
2019-06-10T12:41:30.429Z,28.70
2019-06-10T12:44:02.920Z,28.90
2019-06-10T12:46:32.863Z,28.90
2019-06-10T12:49:08.199Z,29.00
2019-06-10T12:51:35.214Z,29.00
2019-06-10T12:54:06.353Z,29.10
2019-06-10T12:56:36.954Z,29.10
2019-06-10T12:59:10.000Z,29.20
2019-06-10T13:01:40.210Z,29.10
2019-06-10T13:04:13.545Z,28.90
2019-06-10T13:06:43.991Z,28.70
2019-06-10T13:09:14.496Z,28.50
2019-06-10T13:11:44.820Z,28.30
2019-06-10T13:14:18.183Z,28.10
2019-06-10T13:16:47.401Z,28.00
2019-06-10T13:19:17.708Z,27.90
2019-06-10T13:21:57.309Z,28.00
2019-06-10T13:24:37.854Z,28.20
2019-06-10T13:27:22.734Z,28.50
2019-06-10T13:30:04.170Z,28.50
2019-06-10T13:32:52.678Z,28.30
2019-06-10T13:35:33.536Z,28.30
2019-06-10T13:38:11.314Z,28.50
2019-06-10T13:40:59.487Z,28.70
2019-06-10T13:43:39.511Z,28.90
2019-06-10T13:46:15.879Z,29.00
2019-06-10T13:49:06.827Z,29.20
2019-06-10T13:51:43.952Z,29.40
2019-06-10T13:54:14.241Z,29.50
2019-06-10T13:56:47.306Z,29.50
2019-06-10T13:59:16.281Z,29.50
2019-06-10T14:01:46.591Z,29.60
2019-06-10T14:04:21.836Z,29.70
2019-06-10T14:06:53.315Z,29.70
2019-06-10T14:09:23.142Z,29.60
2019-06-10T14:11:54.114Z,29.50
2019-06-10T14:14:28.997Z,29.30
2019-06-10T14:17:01.165Z,29.00
2019-06-10T14:19:37.806Z,28.60
2019-06-10T14:22:15.717Z,28.40
2019-06-10T14:24:45.455Z,28.10
2019-06-10T14:27:21.339Z,28.00
2019-06-10T14:29:52.738Z,28.00
2019-06-10T14:32:22.481Z,27.90
2019-06-10T14:34:54.145Z,27.80
2019-06-10T14:37:38.044Z,27.80
2019-06-10T14:39:56.493Z,27.70
2019-06-10T14:42:26.843Z,27.70
2019-06-10T14:44:57.169Z,27.60
2019-06-10T14:47:27.502Z,27.70
2019-06-10T14:49:58.532Z,27.60
2019-06-10T14:52:28.974Z,27.60
2019-06-10T14:54:59.307Z,27.60
2019-06-10T14:57:29.614Z,27.50
2019-06-10T15:00:02.709Z,27.40
2019-06-10T15:02:33.402Z,27.30
2019-06-10T15:05:03.895Z,27.20
2019-06-10T15:07:35.510Z,27.10
2019-06-10T15:10:07.551Z,27.00
2019-06-10T15:12:38.046Z,26.80
2019-06-10T15:15:10.199Z,26.70
2019-06-10T15:17:43.069Z,26.60
2019-06-10T15:20:13.677Z,26.50
2019-06-10T15:22:44.138Z,26.40
2019-06-10T15:25:17.711Z,26.30
2019-06-10T15:27:47.981Z,26.30
2019-06-10T15:30:23.472Z,26.20
2019-06-10T15:32:52.414Z,26.30
2019-06-10T15:35:24.521Z,26.30
2019-06-10T15:37:55.207Z,26.30
2019-06-10T15:40:25.544Z,26.20
2019-06-10T15:42:57.840Z,26.10
2019-06-10T15:45:27.949Z,26.10
2019-06-10T15:47:58.367Z,26.00
2019-06-10T15:50:28.754Z,25.90
2019-06-10T15:52:59.112Z,25.80
2019-06-10T15:55:55.487Z,25.70
2019-06-10T15:58:02.114Z,25.60
2019-06-10T16:00:34.154Z,25.40
2019-06-10T16:03:04.781Z,25.30
2019-06-10T16:05:35.098Z,25.10
2019-06-10T16:08:05.538Z,25.10
2019-06-10T16:10:35.854Z,25.00
2019-06-10T16:13:05.745Z,24.80
2019-06-10T16:15:36.380Z,24.70
2019-06-10T16:18:06.341Z,24.60
2019-06-10T16:20:36.671Z,24.50
2019-06-10T16:23:06.658Z,24.40
2019-06-10T16:25:37.086Z,24.30
2019-06-10T16:28:08.252Z,24.20
2019-06-10T16:30:38.771Z,24.10
2019-06-10T16:33:09.948Z,24.10
2019-06-10T16:35:40.500Z,24.10
2019-06-10T16:38:12.718Z,24.00
2019-06-10T16:40:43.257Z,23.90
2019-06-10T16:43:13.863Z,23.90
2019-06-10T16:45:44.364Z,23.80
2019-06-10T16:48:14.957Z,23.70
2019-06-10T16:50:47.169Z,23.70
2019-06-10T16:53:17.925Z,23.60
2019-06-10T16:55:49.529Z,23.60
2019-06-10T16:58:21.139Z,23.50
2019-06-10T17:00:51.989Z,23.50
2019-06-10T17:03:25.058Z,23.40
2019-06-10T17:05:54.388Z,23.40
2019-06-10T17:08:26.906Z,23.40
2019-06-10T17:10:57.874Z,23.30
2019-06-10T17:13:30.236Z,23.30
2019-06-10T17:16:03.170Z,23.30
2019-06-10T17:18:33.665Z,23.20
2019-06-10T17:21:04.363Z,23.20
2019-06-10T17:23:36.485Z,23.10
2019-06-10T17:26:06.875Z,23.00
2019-06-10T17:28:37.315Z,23.00
2019-06-10T17:31:07.851Z,22.90
2019-06-10T17:33:39.026Z,22.80
2019-06-10T17:36:13.365Z,22.80
2019-06-10T17:38:44.257Z,22.70
2019-06-10T17:41:14.650Z,22.60
2019-06-10T17:43:45.269Z,22.60
2019-06-10T17:46:17.862Z,22.50
2019-06-10T17:48:48.222Z,22.50
2019-06-10T17:51:22.357Z,22.50
2019-06-10T17:53:53.108Z,22.40
2019-06-10T17:56:26.676Z,22.40
2019-06-10T17:58:58.937Z,22.30
2019-06-10T18:01:34.231Z,22.20
2019-06-10T18:04:04.334Z,22.20
2019-06-10T18:06:36.461Z,22.20
2019-06-10T18:09:08.208Z,22.10
2019-06-10T18:11:39.700Z,22.00
2019-06-10T18:14:12.155Z,22.00
2019-06-10T18:16:49.116Z,21.90
2019-06-10T18:19:24.210Z,21.90
2019-06-10T18:21:56.076Z,21.90
2019-06-10T18:24:29.138Z,21.90
2019-06-10T18:26:59.530Z,21.80
2019-06-10T18:29:32.353Z,21.80
2019-06-10T18:32:03.489Z,21.70
2019-06-10T18:34:36.211Z,21.70
2019-06-10T18:37:06.026Z,21.60
2019-06-10T18:39:36.426Z,21.60
2019-06-10T18:42:06.861Z,21.60
2019-06-10T18:44:40.095Z,21.60
2019-06-10T18:47:09.489Z,21.60
2019-06-10T18:49:41.100Z,21.60
2019-06-10T18:52:12.661Z,21.60
2019-06-10T18:54:43.657Z,21.60
2019-06-10T18:57:14.131Z,21.50
2019-06-10T18:59:44.437Z,21.50
2019-06-10T19:02:14.820Z,21.40
2019-06-10T19:04:45.184Z,21.40
2019-06-10T19:07:15.591Z,21.30
2019-06-10T19:09:48.019Z,21.30
2019-06-10T19:12:19.294Z,21.20
2019-06-10T19:14:52.164Z,21.20
2019-06-10T19:17:23.127Z,21.10
2019-06-10T19:19:53.721Z,21.10
2019-06-10T19:22:24.279Z,21.00
2019-06-10T19:24:54.644Z,21.00
2019-06-10T19:27:25.049Z,21.00
2019-06-10T19:29:55.383Z,20.90
2019-06-10T19:32:26.787Z,20.90
2019-06-10T19:34:57.137Z,20.80
2019-06-10T19:37:27.442Z,20.80
2019-06-10T19:39:57.783Z,20.80
2019-06-10T19:42:28.147Z,20.80
2019-06-10T19:44:58.485Z,20.70
2019-06-10T19:47:28.851Z,20.70
2019-06-10T19:49:59.207Z,20.70
2019-06-10T19:52:31.665Z,20.60
2019-06-10T19:55:02.647Z,20.50
2019-06-10T19:57:34.352Z,20.40
2019-06-10T20:00:11.697Z,20.40
2019-06-10T20:02:37.959Z,20.40
2019-06-10T20:05:08.657Z,20.40
2019-06-10T20:07:42.238Z,20.40
2019-06-10T20:10:13.262Z,20.40
2019-06-10T20:12:46.348Z,20.30
2019-06-10T20:15:22.689Z,20.30
2019-06-10T20:17:53.210Z,20.20
2019-06-10T20:20:23.945Z,20.20
2019-06-10T20:22:57.371Z,20.20
2019-06-10T20:25:26.311Z,20.10
2019-06-10T20:27:56.601Z,20.10
2019-06-10T20:30:28.892Z,20.00
2019-06-10T20:32:59.199Z,20.00
2019-06-10T20:35:32.486Z,19.90
2019-06-10T20:38:04.617Z,19.90
2019-06-10T20:40:35.473Z,19.80
2019-06-10T20:43:05.621Z,19.80
2019-06-10T20:45:37.514Z,19.70
2019-06-10T20:48:10.958Z,19.70
2019-06-10T20:50:43.728Z,19.60
2019-06-10T20:53:18.302Z,19.60
2019-06-10T20:55:51.267Z,19.50
2019-06-10T20:58:17.395Z,19.50
2019-06-10T21:00:52.314Z,19.50
2019-06-10T21:03:19.905Z,19.40
2019-06-10T21:05:52.950Z,19.40
2019-06-10T21:08:23.895Z,19.40
2019-06-10T21:10:54.680Z,19.30
2019-06-10T21:13:25.123Z,19.30
2019-06-10T21:15:59.110Z,19.20
2019-06-10T21:18:27.820Z,19.20
2019-06-10T21:20:58.156Z,19.10
2019-06-10T21:23:28.613Z,19.10
2019-06-10T21:25:58.938Z,19.10
2019-06-10T21:28:29.250Z,19.00
2019-06-10T21:31:02.504Z,19.00
2019-06-10T21:33:33.232Z,19.00
2019-06-10T21:36:04.015Z,18.90
2019-06-10T21:38:34.382Z,18.90
2019-06-10T21:41:04.725Z,18.90
2019-06-10T21:43:35.117Z,18.80
2019-06-10T21:46:05.559Z,18.80
2019-06-10T21:48:35.859Z,18.80
2019-06-10T21:51:06.497Z,18.80
2019-06-10T21:53:36.827Z,18.70
2019-06-10T21:56:07.605Z,18.70
2019-06-10T21:58:37.989Z,18.60
2019-06-10T22:01:13.193Z,18.60
2019-06-10T22:03:40.503Z,18.60
2019-06-10T22:06:12.365Z,18.50
2019-06-10T22:08:44.072Z,18.50
2019-06-10T22:11:14.561Z,18.50
2019-06-10T22:13:46.104Z,18.50
2019-06-10T22:16:16.493Z,18.40
2019-06-10T22:18:46.828Z,18.40
2019-06-10T22:21:17.288Z,18.30
2019-06-10T22:23:48.681Z,18.30
2019-06-10T22:26:19.144Z,18.20
2019-06-10T22:28:49.578Z,18.20
2019-06-10T22:31:23.632Z,18.10
2019-06-10T22:33:54.258Z,18.10
2019-06-10T22:36:23.906Z,18.10
2019-06-10T22:38:57.758Z,18.10
2019-06-10T22:41:26.253Z,18.10
2019-06-10T22:43:57.560Z,18.00
2019-06-10T22:46:28.111Z,18.00
2019-06-10T22:48:59.447Z,18.00
2019-06-10T22:51:32.771Z,18.10
2019-06-10T22:54:03.571Z,18.10
2019-06-10T22:56:33.883Z,18.00
2019-06-10T22:59:04.234Z,18.00
2019-06-10T23:01:38.238Z,18.00
2019-06-10T23:04:06.635Z,18.00
2019-06-10T23:06:37.030Z,17.90
2019-06-10T23:09:07.844Z,17.90
2019-06-10T23:11:38.357Z,17.90
2019-06-10T23:14:08.689Z,17.90
2019-06-10T23:16:39.090Z,17.90
2019-06-10T23:19:09.470Z,17.80
2019-06-10T23:21:42.442Z,17.90
2019-06-10T23:24:13.463Z,17.80
2019-06-10T23:26:43.947Z,17.80
2019-06-10T23:29:14.262Z,17.80
2019-06-10T23:31:51.707Z,17.80
2019-06-10T23:34:19.761Z,17.80
2019-06-10T23:36:48.595Z,17.80
2019-06-10T23:39:18.980Z,17.80
2019-06-10T23:41:50.449Z,17.80
2019-06-10T23:44:22.915Z,17.80
2019-06-10T23:46:53.392Z,17.70
2019-06-10T23:49:23.705Z,17.70
2019-06-10T23:51:55.488Z,17.70
2019-06-10T23:54:26.350Z,17.70
2019-06-10T23:56:58.663Z,17.70
2019-06-10T23:59:29.147Z,17.70
